NKS1313 KFLL-KATL
Flight info
| Callsign | NKS1313 |
|---|---|
| Flight time | N/A |
| Altitude | 38000 |
| Route | FRSBE2 STYMY Q77 MJAMS Q77 SHRKS LAIRI LARZZ JJEDI4 |
| Aircraft | A320/M-VGDW/C |
Departure
| Time | 2026-05-03 21:02 |
|---|---|
| Airport | Fort Lauderdale Hollywood International Airport (KFLL) |
Arrival
| Time | N/A |
|---|---|
| Airport | Hartsfield Jackson Atlanta International Airport (KATL) |
| Time | Latitude | Longitude | Altitude | Speed | Heading |
|---|---|---|---|---|---|
| 2026-05-03 20:15 | 26.07341 | -80.14751 | 26 ft | 0 kts | 107° |
| 2026-05-03 20:21 | 26.07344 | -80.14763 | 27 ft | 4 kts | 108° |
| 2026-05-03 20:21 | 26.07354 | -80.14791 | 24 ft | 4 kts | 114° |
| 2026-05-03 20:22 | 26.07365 | -80.14816 | 26 ft | 4 kts | 126° |
| 2026-05-03 20:22 | 26.07377 | -80.14832 | 24 ft | 1 kts | 136° |
| 2026-05-03 20:22 | 26.07379 | -80.14834 | 23 ft | 0 kts | 136° |
| 2026-05-03 20:24 | 26.07379 | -80.14833 | 21 ft | 0 kts | 136° |
| 2026-05-03 20:25 | 26.07370 | -80.14836 | 21 ft | 2 kts | 198° |
| 2026-05-03 20:25 | 26.07366 | -80.14838 | 21 ft | 0 kts | 200° |
| 2026-05-03 20:29 | 26.07348 | -80.14843 | 21 ft | 12 kts | 194° |
| 2026-05-03 20:29 | 26.07235 | -80.14853 | 22 ft | 13 kts | 180° |
| 2026-05-03 20:29 | 26.07179 | -80.14854 | 22 ft | 5 kts | 181° |
| 2026-05-03 20:29 | 26.07147 | -80.14858 | 21 ft | 7 kts | 197° |
| 2026-05-03 20:30 | 26.07127 | -80.14891 | 22 ft | 9 kts | 265° |
| 2026-05-03 20:30 | 26.07160 | -80.14947 | 21 ft | 11 kts | 303° |
| 2026-05-03 20:30 | 26.07156 | -80.15010 | 22 ft | 15 kts | 251° |
| 2026-05-03 20:30 | 26.07229 | -80.15127 | 22 ft | 17 kts | 355° |
| 2026-05-03 20:31 | 26.07368 | -80.15128 | 20 ft | 21 kts | 0° |
| 2026-05-03 20:31 | 26.07463 | -80.15131 | 20 ft | 16 kts | 341° |
| 2026-05-03 20:31 | 26.07490 | -80.15265 | 17 ft | 17 kts | 270° |
| 2026-05-03 20:31 | 26.07491 | -80.15432 | 17 ft | 23 kts | 270° |
| 2026-05-03 20:32 | 26.07492 | -80.15556 | 19 ft | 24 kts | 270° |
| 2026-05-03 20:32 | 26.07493 | -80.15769 | 19 ft | 18 kts | 269° |
| 2026-05-03 20:32 | 26.07492 | -80.15803 | 20 ft | 1 kts | 269° |
| 2026-05-03 20:32 | 26.07493 | -80.15853 | 21 ft | 8 kts | 270° |
| 2026-05-03 20:33 | 26.07493 | -80.15940 | 23 ft | 17 kts | 270° |
| 2026-05-03 20:33 | 26.07494 | -80.16090 | 25 ft | 19 kts | 272° |
| 2026-05-03 20:33 | 26.07495 | -80.16226 | 25 ft | 15 kts | 269° |
| 2026-05-03 20:33 | 26.07495 | -80.16247 | 24 ft | 0 kts | 272° |
| 2026-05-03 20:34 | 26.07496 | -80.16259 | 24 ft | 0 kts | 271° |
| 2026-05-03 20:34 | 26.07496 | -80.16264 | 24 ft | 2 kts | 271° |
| 2026-05-03 20:34 | 26.07496 | -80.16291 | 24 ft | 5 kts | 270° |
| 2026-05-03 20:35 | 26.07496 | -80.16329 | 24 ft | 0 kts | 270° |
| 2026-05-03 20:42 | 26.07496 | -80.16337 | 24 ft | 6 kts | 270° |
| 2026-05-03 20:42 | 26.07496 | -80.16412 | 24 ft | 9 kts | 270° |
| 2026-05-03 20:42 | 26.07496 | -80.16428 | 24 ft | 0 kts | 270° |
| 2026-05-03 20:45 | 26.07496 | -80.16438 | 24 ft | 0 kts | 270° |
| 2026-05-03 20:46 | 26.07496 | -80.16446 | 24 ft | 2 kts | 270° |
| 2026-05-03 20:46 | 26.07497 | -80.16480 | 24 ft | 6 kts | 270° |
| 2026-05-03 20:46 | 26.07497 | -80.16528 | 25 ft | 0 kts | 270° |
| 2026-05-03 20:47 | 26.07497 | -80.16535 | 25 ft | 2 kts | 270° |
| 2026-05-03 20:47 | 26.07497 | -80.16549 | 24 ft | 0 kts | 270° |
| 2026-05-03 20:49 | 26.07497 | -80.16556 | 24 ft | 2 kts | 270° |
| 2026-05-03 20:49 | 26.07498 | -80.16578 | 24 ft | 1 kts | 273° |
| 2026-05-03 20:49 | 26.07498 | -80.16588 | 24 ft | 3 kts | 274° |
| 2026-05-03 20:50 | 26.07500 | -80.16600 | 24 ft | 4 kts | 282° |
| 2026-05-03 20:50 | 26.07501 | -80.16603 | 24 ft | 0 kts | 285° |
| 2026-05-03 20:51 | 26.07501 | -80.16604 | 24 ft | 0 kts | 285° |
| 2026-05-03 20:52 | 26.07508 | -80.16623 | 25 ft | 5 kts | 298° |
| 2026-05-03 20:53 | 26.07543 | -80.16642 | 23 ft | 0 kts | 355° |
| 2026-05-03 20:58 | 26.07557 | -80.16642 | 23 ft | 5 kts | 358° |
| 2026-05-03 20:58 | 26.07574 | -80.16642 | 22 ft | 0 kts | 0° |
| 2026-05-03 20:59 | 26.07575 | -80.16642 | 22 ft | 0 kts | 0° |
| 2026-05-03 21:00 | 26.07591 | -80.16642 | 23 ft | 8 kts | 0° |
| 2026-05-03 21:01 | 26.07668 | -80.16634 | 22 ft | 13 kts | 17° |
| 2026-05-03 21:01 | 26.07691 | -80.16481 | 24 ft | 44 kts | 90° |
| 2026-05-03 21:01 | 26.07693 | -80.15953 | 24 ft | 118 kts | 90° |
| 2026-05-03 21:01 | 26.07692 | -80.14788 | 203 ft | 168 kts | 91° |
| 2026-05-03 21:02 | 26.07685 | -80.13472 | 1067 ft | 171 kts | 86° |
| 2026-05-03 21:02 | 26.07743 | -80.12086 | 1950 ft | 179 kts | 85° |
| 2026-05-03 21:02 | 26.07820 | -80.10745 | 2604 ft | 182 kts | 85° |
| 2026-05-03 21:02 | 26.08051 | -80.09204 | 2904 ft | 202 kts | 68° |
| 2026-05-03 21:03 | 26.08793 | -80.07900 | 3147 ft | 221 kts | 42° |
| 2026-05-03 21:03 | 26.10100 | -80.06836 | 3438 ft | 244 kts | 27° |
| 2026-05-03 21:03 | 26.11731 | -80.06026 | 3875 ft | 267 kts | 17° |
| 2026-05-03 21:03 | 26.13520 | -80.05376 | 3989 ft | 273 kts | 13° |
| 2026-05-03 21:04 | 26.15378 | -80.05073 | 4012 ft | 269 kts | 358° |
| 2026-05-03 21:04 | 26.17240 | -80.05310 | 4019 ft | 266 kts | 342° |